Cape Balder — V7KA5 — position and weather

sailwx.info

Track history (hours):
 
Tides and Currents Weather Stations Pressure Air Temp Water Temp Dewpoint Dewpoint Depression Visibility Wind Speed Wind Dir Waves Ship Positions

Cape Balder

Last reported at 2017-Sep-14 14:16 UTC. Time now 2017-Nov-23 02:05 UTC.
Position N 35°32' E 030°55'.
Warning: this ship's position is months out of date.

Length 274 m; draft 9 m.

Type: Ship. MMSI: 538005854.

Date/timePositionNaut miles runAvg speedWind from/ knotsBaromVisibWave heightAir tempDewpointWater temp
2017-Sep-14 14:16N 35°32' E 030°55'515.1
2017-Sep-14 13:58N 35°32' E 030°49'2314.8
2017-Sep-14 12:26N 35°30' E 030°21'24213.7
2017-Sep-13 18:50N 37°23' E 025°55'514.9
2017-Sep-13 18:30N 37°28' E 025°53'815.2
2017-Sep-13 18:00N 37°35' E 025°52'  
2017-Sep-09 14:12N 37°35' E 025°52'211.0
2017-Sep-09 14:01N 37°33' E 025°52'510.8
2017-Sep-09 13:31N 37°28' E 025°53'19210.9
2017-Sep-08 19:57N 35°00' E 028°25'32611.0
2017-Sep-07 14:22N 30°42' E 032°21'  
Track history (hours):
 
Tides and Currents Weather Stations Pressure Air Temp Water Temp Dewpoint Dewpoint Depression Visibility Wind Speed Wind Dir Waves Ship Positions

Cape Balder

Last reported at 2017-Sep-14 14:16 UTC. Time now 2017-Nov-23 02:05 UTC.
Position N 35°32' E 030°55'.
Warning: this ship's position is months out of date.

Length 274 m; draft 9 m.

Type: Ship. MMSI: 538005854.

Date/timePositionNaut miles runAvg speedWind from/ knotsBaromVisibWave heightAir tempDewpointWater temp
2017-Sep-14 14:16N 35°32' E 030°55'515.1
2017-Sep-14 13:58N 35°32' E 030°49'2314.8
2017-Sep-14 12:26N 35°30' E 030°21'24213.7
2017-Sep-13 18:50N 37°23' E 025°55'514.9
2017-Sep-13 18:30N 37°28' E 025°53'815.2
2017-Sep-13 18:00N 37°35' E 025°52'  
2017-Sep-09 14:12N 37°35' E 025°52'211.0
2017-Sep-09 14:01N 37°33' E 025°52'510.8
2017-Sep-09 13:31N 37°28' E 025°53'19210.9
2017-Sep-08 19:57N 35°00' E 028°25'32611.0
2017-Sep-07 14:22N 30°42' E 032°21'  

Dump ship's entire track history